Time;durP1;ratioP1;P1;durP2;ratioP2;P2;SDS_P1;SDS_P2;PMS_P1;PMS_P2;Temp;Humidity;BMP_temperature;BMP_pressure;BME280_temperature;BME280_humidity;BME280_pressure;Samples;Min_cycle;Max_cycle;Signal;HPM_P1;HPM_P2
2022/04/08 00:01:58;;;;;;;34.35;9.08;;;;;;;13.82;58.13;99741.36;1779541;81;21534;-66
2022/04/08 00:04:25;;;;;;;33.78;8.53;;;;;;;13.82;58.06;99746.58;1779183;81;21093;-66
2022/04/08 00:06:52;;;;;;;47.95;12.43;;;;;;;13.83;58.06;99752.19;1779526;80;21085;-66
2022/04/08 00:09:19;;;;;;;52.80;11.60;;;;;;;13.81;58.09;99744.88;1771112;79;21066;-66
2022/04/08 00:11:47;;;;;;;32.45;9.33;;;;;;;13.81;58.16;99739.65;1778957;81;21011;-66
2022/04/08 00:14:14;;;;;;;44.50;8.73;;;;;;;13.80;58.16;99734.05;1779151;81;21019;-66
2022/04/08 00:16:42;;;;;;;31.42;8.55;;;;;;;13.80;58.26;99727.06;1779143;81;21046;-66
2022/04/08 00:19:11;;;;;;;27.70;7.05;;;;;;;13.81;58.30;99727.88;1766327;80;21036;-66
2022/04/08 00:21:38;;;;;;;20.32;6.45;;;;;;;13.81;58.31;99716.12;1750127;82;21065;-65
2022/04/08 00:24:07;;;;;;;22.77;7.15;;;;;;;13.82;58.27;99715.20;1709857;84;21064;-66
2022/04/08 00:26:36;;;;;;;15.88;5.20;;;;;;;13.81;58.34;99721.34;1715645;83;21495;-66
2022/04/08 00:29:03;;;;;;;19.20;5.22;;;;;;;13.82;58.39;99721.75;1714202;83;21054;-66
2022/04/08 00:31:30;;;;;;;18.73;5.05;;;;;;;13.83;58.31;99723.42;1693543;84;21043;-66
2022/04/08 00:33:57;;;;;;;26.60;5.37;;;;;;;13.83;58.32;99719.05;1702234;84;21023;-66
2022/04/08 00:36:24;;;;;;;16.90;4.60;;;;;;;13.84;58.32;99726.44;1701595;84;21039;-66
2022/04/08 00:38:53;;;;;;;17.73;4.60;;;;;;;13.84;58.29;99727.73;1694449;84;21046;-65
2022/04/08 00:41:20;;;;;;;18.57;5.15;;;;;;;13.84;58.34;99731.66;1711690;84;21513;-66
2022/04/08 00:43:47;;;;;;;13.53;4.25;;;;;;;13.83;58.30;99724.73;1696644;84;21030;-66
2022/04/08 00:46:13;;;;;;;16.00;5.60;;;;;;;13.84;58.36;99722.52;1707996;84;21066;-66
2022/04/08 00:48:40;;;;;;;14.65;4.33;;;;;;;13.84;58.46;99722.52;1694890;84;21052;-66
2022/04/08 00:51:07;;;;;;;18.90;5.17;;;;;;;13.84;58.44;99723.81;1711734;84;21564;-65
2022/04/08 00:53:38;;;;;;;17.40;4.78;;;;;;;13.84;58.44;99727.73;1703501;84;21081;-66
2022/04/08 00:56:06;;;;;;;15.68;4.85;;;;;;;13.85;58.49;99725.50;1699934;84;21071;-65
2022/04/08 00:58:35;;;;;;;19.57;4.75;;;;;;;13.86;58.56;99731.12;1654971;84;21098;-66
2022/04/08 01:01:03;;;;;;;18.82;4.70;;;;;;;13.86;58.57;99732.43;1710377;84;21035;-66
2022/04/08 01:03:31;;;;;;;15.10;4.75;;;;;;;13.87;58.59;99730.19;1696498;84;21486;-66
2022/04/08 01:06:00;;;;;;;16.70;4.55;;;;;;;13.87;58.59;99734.95;1693521;84;21046;-66
2022/04/08 01:08:28;;;;;;;16.12;5.30;;;;;;;13.88;58.68;99735.81;1710832;84;21075;-66
2022/04/08 01:10:55;;;;;;;17.48;4.75;;;;;;;13.89;58.66;99737.48;1660007;83;21078;-66
2022/04/08 01:13:22;;;;;;;16.48;4.15;;;;;;;13.88;58.66;99725.35;1697639;83;21084;-66
2022/04/08 01:15:51;;;;;;;17.80;5.15;;;;;;;13.91;58.69;99729.59;1704744;84;21562;-66
2022/04/08 01:18:18;;;;;;;20.57;4.12;;;;;;;13.93;58.66;99731.17;1699317;84;21545;-65
2022/04/08 01:20:46;;;;;;;14.15;3.60;;;;;;;13.91;58.60;99730.41;1728495;82;21085;-66
2022/04/08 01:23:16;;;;;;;17.75;4.45;;;;;;;13.92;58.59;99732.11;1725442;83;21059;-66
2022/04/08 01:25:44;;;;;;;17.63;4.70;;;;;;;13.94;58.62;99735.50;1784852;80;21018;-65
2022/04/08 01:28:11;;;;;;;16.82;4.22;;;;;;;13.94;58.63;99738.11;1784918;80;21528;-65
2022/04/08 01:30:38;;;;;;;15.35;3.35;;;;;;;13.97;58.60;99735.35;1785162;80;20991;-65
2022/04/08 01:33:05;;;;;;;19.20;4.45;;;;;;;13.95;58.65;99724.09;1785378;80;21014;-65
2022/04/08 01:35:32;;;;;;;13.90;3.52;;;;;;;13.95;58.66;99726.70;1785207;80;21026;-65
2022/04/08 01:37:59;;;;;;;21.00;4.78;;;;;;;13.97;58.67;99724.89;1785271;80;21038;-65
2022/04/08 01:40:28;;;;;;;16.95;4.55;;;;;;;13.99;58.59;99726.11;1784860;80;21450;-67
2022/04/08 01:42:56;;;;;;;16.75;4.25;;;;;;;13.98;58.59;99723.09;1784947;80;21003;-66
2022/04/08 01:45:24;;;;;;;16.20;4.37;;;;;;;13.99;58.59;99723.04;1785372;80;21018;-66
2022/04/08 01:47:52;;;;;;;19.80;4.60;;;;;;;13.99;58.59;99725.66;1784953;80;21502;-66
2022/04/08 01:50:21;;;;;;;15.10;4.08;;;;;;;14.01;58.62;99728.19;1785207;80;21014;-66
2022/04/08 01:52:49;;;;;;;18.35;5.35;;;;;;;13.98;58.58;99727.88;1785217;80;21555;-67
2022/04/08 01:55:15;;;;;;;17.65;4.22;;;;;;;13.96;58.61;99719.72;1785206;80;20998;-66
2022/04/08 01:57:44;;;;;;;18.40;5.05;;;;;;;13.96;58.74;99726.25;1785498;80;21046;-66
2022/04/08 02:00:13;;;;;;;11.25;3.67;;;;;;;13.96;58.74;99725.80;1785394;80;21062;-67
2022/04/08 02:02:40;;;;;;;19.15;4.90;;;;;;;13.97;58.72;99727.51;1785320;80;21625;-66
2022/04/08 02:05:08;;;;;;;21.85;5.37;;;;;;;13.98;58.70;99725.26;1785090;80;21090;-66
2022/04/08 02:07:35;;;;;;;15.48;4.35;;;;;;;13.99;58.75;99729.58;1785111;80;20994;-66
2022/04/08 02:10:05;;;;;;;20.32;4.70;;;;;;;13.98;58.75;99730.48;1784194;80;21053;-67
2022/04/08 02:12:33;;;;;;;16.80;4.97;;;;;;;13.98;58.75;99730.48;1785125;80;21487;-66
2022/04/08 02:14:59;;;;;;;18.48;4.30;;;;;;;13.97;58.79;99732.73;1785063;80;21519;-66
2022/04/08 02:17:30;;;;;;;17.70;4.70;;;;;;;13.98;58.78;99730.48;1784915;80;21018;-66
2022/04/08 02:19:58;;;;;;;18.05;5.95;;;;;;;13.97;58.83;99731.43;1767996;80;21046;-66
2022/04/08 02:22:29;;;;;;;20.15;5.15;;;;;;;13.98;58.84;99723.95;1709543;83;21551;-67
2022/04/08 02:24:58;;;;;;;26.35;5.97;;;;;;;13.98;58.87;99724.41;1688167;83;21087;-66
2022/04/08 02:27:26;;;;;;;21.12;4.28;;;;;;;13.97;58.89;99718.80;1696585;84;21052;-66
2022/04/08 02:29:58;;;;;;;21.20;4.92;;;;;;;13.96;58.78;99707.49;1709859;84;21063;-67
2022/04/08 02:32:25;;;;;;;20.72;5.03;;;;;;;13.94;58.83;99704.56;1685151;84;20971;-67
2022/04/08 02:34:52;;;;;;;23.45;4.40;;;;;;;13.92;58.79;99700.73;1699574;84;21007;-66
2022/04/08 02:37:19;;;;;;;19.30;4.83;;;;;;;13.94;58.78;99701.50;1701067;84;21017;-66
2022/04/08 02:39:47;;;;;;;23.92;5.20;;;;;;;13.95;58.74;99701.86;1694801;84;21086;-67
2022/04/08 02:42:16;;;;;;;17.60;4.60;;;;;;;13.97;58.78;99692.66;1697462;84;21046;-67
2022/04/08 02:44:42;;;;;;;21.85;6.05;;;;;;;13.96;58.75;99697.03;1709993;84;21051;-66
2022/04/08 02:47:12;;;;;;;21.80;5.30;;;;;;;13.98;58.75;99691.26;1708513;84;21038;-66
2022/04/08 02:49:38;;;;;;;18.95;5.17;;;;;;;13.97;58.80;99676.51;1676844;84;21003;-66
2022/04/08 02:52:07;;;;;;;17.45;5.53;;;;;;;13.94;58.81;99672.73;1696382;84;21062;-66
2022/04/08 02:54:34;;;;;;;22.70;4.55;;;;;;;13.92;58.74;99671.97;1692915;84;21023;-66
2022/04/08 02:57:01;;;;;;;21.75;6.87;;;;;;;13.92;58.85;99668.04;1707788;84;21035;-66
2022/04/08 02:59:28;;;;;;;20.72;5.60;;;;;;;13.91;58.88;99675.48;1698436;84;21502;-66
2022/04/08 03:01:56;;;;;;;16.05;4.87;;;;;;;13.91;58.91;99678.10;1699764;84;21042;-67
2022/04/08 03:04:25;;;;;;;23.18;5.20;;;;;;;13.93;58.87;99684.09;1701353;84;21019;-66
2022/04/08 03:06:54;;;;;;;18.32;4.28;;;;;;;13.93;58.87;99694.56;1692752;84;21527;-66
2022/04/08 03:09:21;;;;;;;18.20;4.37;;;;;;;13.95;58.83;99696.63;1708978;84;21035;-66
2022/04/08 03:11:49;;;;;;;14.50;4.53;;;;;;;13.96;58.75;99705.33;1703193;84;21050;-67
2022/04/08 03:14:17;;;;;;;19.80;4.92;;;;;;;13.96;58.74;99716.64;1700760;84;21555;-66
2022/04/08 03:16:44;;;;;;;19.70;4.08;;;;;;;14.00;58.68;99719.48;1694483;84;21082;-66
2022/04/08 03:19:12;;;;;;;22.62;5.17;;;;;;;14.01;58.66;99728.19;1711110;84;21055;-66
2022/04/08 03:21:40;;;;;;;19.15;5.25;;;;;;;14.02;58.71;99735.94;1750148;82;21561;-66
2022/04/08 03:24:10;;;;;;;16.50;4.55;;;;;;;14.02;58.71;99739.87;1787542;80;20986;-66
2022/04/08 03:26:39;;;;;;;16.57;4.78;;;;;;;14.03;58.73;99746.80;1787316;80;21050;-66
2022/04/08 03:29:06;;;;;;;16.73;5.05;;;;;;;14.04;58.67;99752.41;1787497;80;21018;-66
2022/04/08 03:31:34;;;;;;;18.65;4.92;;;;;;;14.04;58.67;99755.02;1766429;80;21054;-67
2022/04/08 03:34:02;;;;;;;18.73;4.80;;;;;;;14.06;58.65;99758.40;1787713;80;21030;-67
2022/04/08 03:36:29;;;;;;;18.32;5.47;;;;;;;14.05;58.60;99754.11;1785794;80;21045;-66
2022/04/08 03:38:56;;;;;;;17.67;5.15;;;;;;;14.05;58.60;99756.73;1787665;80;21547;-66
2022/04/08 03:41:24;;;;;;;23.65;5.10;;;;;;;14.04;58.61;99755.02;1787502;80;21045;-66
2022/04/08 03:43:51;;;;;;;18.57;5.28;;;;;;;14.05;58.64;99756.73;1787427;80;21026;-66
2022/04/08 03:46:19;;;;;;;23.05;5.22;;;;;;;14.05;58.67;99759.34;1787491;80;21031;-67
2022/04/08 03:48:46;;;;;;;20.15;6.00;;;;;;;14.08;58.57;99759.16;1787789;80;21007;-67
2022/04/08 03:51:14;;;;;;;21.20;5.47;;;;;;;14.08;58.60;99753.94;1787227;80;21042;-66
2022/04/08 03:53:41;;;;;;;19.98;5.50;;;;;;;14.08;58.59;99759.63;1787910;80;21073;-67
2022/04/08 03:56:08;;;;;;;25.35;7.78;;;;;;;14.09;58.67;99758.71;1787519;80;21061;-66
2022/04/08 03:58:35;;;;;;;41.65;9.55;;;;;;;14.08;58.65;99758.31;1787673;80;21039;-66
2022/04/08 04:01:02;;;;;;;42.73;12.45;;;;;;;14.05;58.53;99758.48;1787543;79;21019;-66
2022/04/08 04:03:28;;;;;;;51.02;12.05;;;;;;;14.02;58.53;99764.72;1787735;80;21463;-66
2022/04/08 04:05:56;;;;;;;35.70;11.08;;;;;;;14.02;58.45;99759.48;1787533;80;21019;-66
2022/04/08 04:08:23;;;;;;;33.55;8.83;;;;;;;14.02;58.44;99767.33;1766402;80;21026;-67
2022/04/08 04:10:52;;;;;;;28.80;7.20;;;;;;;14.02;58.38;99766.48;1787541;80;21002;-66
2022/04/08 04:13:19;;;;;;;31.05;7.75;;;;;;;14.02;58.38;99773.02;1787530;80;20999;-66
2022/04/08 04:15:45;;;;;;;40.33;10.05;;;;;;;14.02;58.23;99779.10;1787371;79;21002;-66
2022/04/08 04:18:12;;;;;;;39.83;9.63;;;;;;;14.04;58.11;99785.55;1787409;80;21026;-66
2022/04/08 04:20:41;;;;;;;43.13;11.28;;;;;;;14.03;58.09;99787.34;1766974;80;21657;-66
2022/04/08 04:23:08;;;;;;;46.92;10.20;;;;;;;14.02;58.14;99787.41;1751483;82;21074;-66
2022/04/08 04:25:35;;;;;;;42.43;9.83;;;;;;;14.01;58.19;99787.03;1749805;82;20999;-66
2022/04/08 04:28:04;;;;;;;49.23;11.18;;;;;;;14.02;58.19;99795.25;1710488;84;21117;-66
2022/04/08 04:30:33;;;;;;;48.65;12.82;;;;;;;14.01;58.21;99794.42;1709956;84;21015;-66
2022/04/08 04:33:00;;;;;;;58.98;13.93;;;;;;;14.03;58.17;99800.42;1683701;85;21170;-66
2022/04/08 04:35:27;;;;;;;75.00;15.00;;;;;;;14.03;58.17;99800.42;1683731;85;21035;-66
2022/04/08 04:37:54;;;;;;;60.65;14.65;;;;;;;14.05;58.25;99799.03;1683661;85;21035;-67
2022/04/08 04:40:21;;;;;;;71.70;15.78;;;;;;;14.06;58.34;99802.87;1683919;85;21083;-66
2022/04/08 04:42:48;;;;;;;48.68;12.82;;;;;;;14.08;58.35;99806.25;1683706;85;21351;-67
2022/04/08 04:45:17;;;;;;;44.15;11.80;;;;;;;14.08;58.36;99807.56;1683901;85;21173;-66
2022/04/08 04:47:43;;;;;;;35.60;9.48;;;;;;;14.10;58.46;99812.25;1683980;85;20995;-66
2022/04/08 04:50:11;;;;;;;27.55;7.03;;;;;;;14.13;58.58;99814.73;1709279;84;21022;-66
2022/04/08 04:52:37;;;;;;;30.50;7.17;;;;;;;14.17;58.68;99811.03;1714251;83;21031;-66
2022/04/08 04:55:06;;;;;;;18.48;6.45;;;;;;;14.20;58.80;99819.19;1693482;84;21070;-67
2022/04/08 04:57:34;;;;;;;14.78;5.67;;;;;;;14.23;58.80;99819.88;1696175;84;21534;-66
2022/04/08 05:00:02;;;;;;;25.70;6.00;;;;;;;14.25;58.86;99816.71;1692652;84;21511;-66
2022/04/08 05:02:31;;;;;;;18.75;5.03;;;;;;;14.29;58.95;99814.80;1710311;84;21055;-66
2022/04/08 05:04:58;;;;;;;19.82;5.75;;;;;;;14.33;59.01;99817.19;1715214;83;20991;-65
2022/04/08 05:07:25;;;;;;;17.52;6.00;;;;;;;14.37;59.05;99817.87;1714412;83;21480;-66
2022/04/08 05:09:52;;;;;;;23.05;5.25;;;;;;;14.42;59.02;99819.80;1714143;83;21050;-66
2022/04/08 05:12:20;;;;;;;22.27;5.00;;;;;;;14.45;58.95;99821.78;1693210;84;21594;-66
2022/04/08 05:14:47;;;;;;;17.73;5.45;;;;;;;14.50;58.89;99826.33;1701917;84;21078;-66
2022/04/08 05:17:14;;;;;;;18.70;5.58;;;;;;;14.53;58.83;99829.23;1684712;84;21009;-66
2022/04/08 05:19:41;;;;;;;18.57;6.30;;;;;;;14.56;58.78;99829.94;1711212;84;21063;-66
2022/04/08 05:22:09;;;;;;;18.25;5.90;;;;;;;14.60;58.70;99835.84;1725122;82;21582;-66
2022/04/08 05:24:35;;;;;;;22.93;5.28;;;;;;;14.63;58.59;99835.22;1787487;79;21073;-66
2022/04/08 05:27:05;;;;;;;22.75;5.78;;;;;;;14.66;58.49;99844.23;1787175;80;21046;-66
2022/04/08 05:29:33;;;;;;;21.65;5.75;;;;;;;14.70;58.46;99840.98;1777360;80;21007;-66
2022/04/08 05:32:00;;;;;;;18.77;5.22;;;;;;;14.73;58.43;99839.52;1785543;79;20991;-66
2022/04/08 05:34:27;;;;;;;12.37;4.45;;;;;;;14.75;58.36;99847.29;1787613;79;21030;-66
2022/04/08 05:36:54;;;;;;;22.32;6.50;;;;;;;14.77;58.28;99855.91;1787535;79;21062;-66
2022/04/08 05:39:21;;;;;;;20.95;6.28;;;;;;;14.80;58.28;99858.34;1787298;80;21007;-66
2022/04/08 05:41:48;;;;;;;18.73;5.70;;;;;;;14.81;58.13;99852.20;1787426;80;21015;-67
2022/04/08 05:44:15;;;;;;;13.95;4.83;;;;;;;14.83;58.21;99863.44;1787691;80;21459;-66
2022/04/08 05:46:44;;;;;;;16.87;5.60;;;;;;;14.85;58.21;99860.27;1787693;80;21023;-66
2022/04/08 05:49:10;;;;;;;15.68;5.28;;;;;;;14.87;58.26;99858.42;1787820;80;21058;-66
2022/04/08 05:51:39;;;;;;;15.78;4.78;;;;;;;14.89;58.17;99860.03;1766688;80;21082;-66
2022/04/08 05:54:06;;;;;;;16.97;6.03;;;;;;;14.92;58.12;99866.41;1787596;80;20983;-66
2022/04/08 05:56:34;;;;;;;17.12;4.65;;;;;;;14.92;58.01;99865.58;1787744;80;21018;-66
2022/04/08 05:59:01;;;;;;;18.52;6.17;;;;;;;14.93;57.97;99864.64;1787682;80;21035;-65
2022/04/08 06:01:28;;;;;;;18.25;5.72;;;;;;;14.96;57.86;99872.34;1788054;80;21034;-65
2022/04/08 06:03:55;;;;;;;17.37;6.10;;;;;;;14.97;57.85;99872.26;1787835;80;21014;-66
2022/04/08 06:06:22;;;;;;;20.40;7.37;;;;;;;14.99;57.83;99869.55;1787822;79;21011;-65
2022/04/08 06:08:48;;;;;;;14.58;5.85;;;;;;;15.02;57.82;99874.64;1787545;80;21015;-66
2022/04/08 06:11:16;;;;;;;18.30;6.22;;;;;;;15.05;57.71;99875.77;1787665;80;21018;-66
2022/04/08 06:13:43;;;;;;;14.85;7.28;;;;;;;15.07;57.51;99890.48;1787549;80;21014;-66
2022/04/08 06:16:11;;;;;;;13.90;5.65;;;;;;;15.06;57.38;99886.64;1787460;79;21542;-66
2022/04/08 06:18:40;;;;;;;14.30;5.92;;;;;;;15.07;57.36;99885.70;1787952;80;21034;-65
2022/04/08 06:21:08;;;;;;;15.30;5.75;;;;;;;15.08;57.37;99890.03;1783646;80;21074;-66
2022/04/08 06:23:35;;;;;;;14.98;5.97;;;;;;;15.13;57.31;99901.09;1770197;79;21043;-66
2022/04/08 06:26:01;;;;;;;17.80;6.15;;;;;;;15.15;57.29;99900.54;1778654;81;21074;-65
2022/04/08 06:28:30;;;;;;;14.25;4.72;;;;;;;15.18;57.10;99905.63;1779168;81;21038;-65
2022/04/08 06:30:57;;;;;;;11.22;4.92;;;;;;;15.20;56.93;99905.09;1779322;81;21459;-65
2022/04/08 06:33:25;;;;;;;13.18;4.53;;;;;;;15.21;56.80;99914.17;1779251;79;21054;-65
2022/04/08 06:35:52;;;;;;;16.35;5.70;;;;;;;15.23;56.74;99917.55;1779345;81;21031;-65
2022/04/08 06:38:18;;;;;;;17.75;4.85;;;;;;;15.24;56.63;99917.95;1779470;81;21011;-66
2022/04/08 06:40:47;;;;;;;17.70;4.35;;;;;;;15.26;56.44;99916.55;1779473;81;20999;-66
2022/04/08 06:43:13;;;;;;;10.88;4.25;;;;;;;15.30;56.31;99920.70;1779266;81;21023;-65
2022/04/08 06:45:40;;;;;;;13.40;3.83;;;;;;;15.33;56.20;99927.09;1776760;79;21006;-66
2022/04/08 06:48:08;;;;;;;10.13;4.25;;;;;;;15.35;55.94;99931.79;1779677;81;21022;-65
2022/04/08 06:50:35;;;;;;;7.37;3.70;;;;;;;15.36;55.92;99929.08;1779313;81;20995;-65
2022/04/08 06:53:02;;;;;;;12.10;3.90;;;;;;;15.40;55.89;99933.68;1775821;81;21026;-65
2022/04/08 06:55:30;;;;;;;13.93;4.22;;;;;;;15.43;55.91;99942.73;1772621;81;20999;-64
2022/04/08 06:58:02;;;;;;;14.10;4.22;;;;;;;15.44;55.89;99941.80;1779275;79;21026;-66
2022/04/08 07:00:30;;;;;;;14.20;3.93;;;;;;;15.49;55.70;99938.47;1730306;81;21042;-64
2022/04/08 07:02:57;;;;;;;14.38;4.37;;;;;;;15.52;55.74;99947.46;1729337;81;21042;-65
2022/04/08 07:05:25;;;;;;;9.50;4.05;;;;;;;15.60;55.61;99964.93;1729803;81;21554;-64
2022/04/08 07:07:52;;;;;;;12.47;4.90;;;;;;;15.67;55.07;99963.68;1732431;81;21586;-64
2022/04/08 07:10:19;;;;;;;14.25;3.67;;;;;;;15.70;54.77;99959.59;1733138;81;21066;-64
2022/04/08 07:12:46;;;;;;;8.80;3.22;;;;;;;15.73;54.72;99963.34;1729448;81;21007;-64
2022/04/08 07:15:15;;;;;;;7.10;3.02;;;;;;;15.78;54.67;99961.33;1724525;81;21039;-64
2022/04/08 07:17:42;;;;;;;11.65;3.62;;;;;;;15.84;54.62;99957.05;1717722;81;21484;-63
2022/04/08 07:20:11;;;;;;;12.40;3.10;;;;;;;15.94;54.41;99965.23;1731481;81;21135;-63
2022/04/08 07:22:37;;;;;;;10.30;4.08;;;;;;;16.05;54.18;99977.30;1729837;81;21137;-63
2022/04/08 07:25:06;;;;;;;11.08;4.12;;;;;;;16.14;53.55;99980.24;1731368;81;21115;-65
2022/04/08 07:27:46;;;;;;;7.55;3.42;;;;;;;16.23;53.16;99986.30;1732473;81;21002;-64
2022/04/08 07:30:16;;;;;;;9.93;3.40;;;;;;;16.28;52.90;99986.86;1731253;81;21011;-65
2022/04/08 07:32:45;;;;;;;14.28;3.20;;;;;;;16.36;52.55;99991.70;1719397;81;21558;-63
2022/04/08 07:35:14;;;;;;;5.77;2.53;;;;;;;16.42;52.34;99983.92;1728010;81;21039;-65
2022/04/08 07:37:41;;;;;;;7.58;2.92;;;;;;;16.49;52.04;99987.87;1731846;81;21582;-65
2022/04/08 07:40:11;;;;;;;7.85;3.17;;;;;;;16.52;51.70;99983.80;1729330;81;21065;-65
2022/04/08 07:42:38;;;;;;;8.35;3.00;;;;;;;16.59;51.76;99989.09;1733480;81;21054;-64
2022/04/08 07:45:07;;;;;;;6.58;2.52;;;;;;;16.65;51.63;99992.17;1733211;81;21038;-65
2022/04/08 07:47:34;;;;;;;7.80;2.98;;;;;;;16.72;51.26;99987.41;1719339;81;21518;-65
2022/04/08 07:50:05;;;;;;;5.40;2.95;;;;;;;16.78;50.87;99985.28;1735703;81;21062;-64
2022/04/08 07:52:34;;;;;;;10.30;4.40;;;;;;;16.86;51.23;99979.55;1729720;81;21042;-64
2022/04/08 07:55:01;;;;;;;17.12;4.97;;;;;;;16.98;51.02;99972.28;1731015;81;21073;-64
2022/04/08 07:57:28;;;;;;;10.28;4.65;;;;;;;17.03;51.57;99979.41;1762798;81;21078;-64
2022/04/08 07:59:56;;;;;;;17.70;6.08;;;;;;;16.98;52.05;99967.84;1779068;81;21027;-64
2022/04/08 08:02:23;;;;;;;9.85;4.72;;;;;;;16.95;51.94;99972.45;1779478;79;21007;-65
2022/04/08 08:04:51;;;;;;;12.15;4.40;;;;;;;16.89;52.29;99967.56;1779659;81;21570;-64
2022/04/08 08:07:19;;;;;;;12.95;4.37;;;;;;;16.84;52.48;99966.52;1779261;81;21019;-63
2022/04/08 08:09:45;;;;;;;12.43;4.28;;;;;;;16.80;52.58;99964.16;1779398;79;21026;-63
2022/04/08 08:12:14;;;;;;;13.38;4.72;;;;;;;16.77;52.68;99966.52;1779166;81;21065;-64
2022/04/08 08:14:41;;;;;;;10.40;4.15;;;;;;;16.73;52.69;99973.36;1779282;81;21020;-65
2022/04/08 08:17:08;;;;;;;8.70;4.00;;;;;;;16.67;52.92;99985.05;1779540;81;21502;-64
2022/04/08 08:19:36;;;;;;;14.23;4.75;;;;;;;16.68;53.09;99993.78;1779078;79;21534;-63
2022/04/08 08:22:05;;;;;;;14.80;4.90;;;;;;;16.69;53.03;100009.45;1775756;80;21070;-64
2022/04/08 08:24:33;;;;;;;12.20;4.33;;;;;;;16.71;53.33;100017.27;1773256;81;20990;-64
2022/04/08 08:27:01;;;;;;;8.60;4.00;;;;;;;16.75;52.92;100018.77;1779395;81;21496;-64
2022/04/08 08:29:29;;;;;;;11.70;4.42;;;;;;;16.81;52.99;100024.98;1779144;81;21030;-64
2022/04/08 08:31:58;;;;;;;15.35;4.47;;;;;;;16.88;53.04;100035.03;1779188;81;21057;-64
2022/04/08 08:34:25;;;;;;;16.73;5.28;;;;;;;16.96;52.81;100036.73;1779340;81;21066;-64
2022/04/08 08:36:57;;;;;;;10.18;4.10;;;;;;;17.06;52.71;100035.25;1779116;79;21047;-64
2022/04/08 08:39:21;;;;;;;13.65;5.58;;;;;;;17.19;52.32;100038.00;1776198;81;21042;-64
2022/04/08 08:41:49;;;;;;;11.18;4.10;;;;;;;17.27;51.95;100037.56;1779383;79;21002;-64
2022/04/08 08:44:19;;;;;;;9.78;3.87;;;;;;;17.26;51.94;100039.80;1779309;81;21054;-64
2022/04/08 08:46:46;;;;;;;9.75;4.30;;;;;;;17.30;51.85;100046.10;1779350;81;21007;-64
2022/04/08 08:49:13;;;;;;;10.20;4.25;;;;;;;17.35;51.47;100056.34;1779181;81;21514;-64
2022/04/08 08:51:42;;;;;;;14.20;4.12;;;;;;;17.41;51.28;100054.20;1779330;81;21019;-65
2022/04/08 08:54:09;;;;;;;14.98;4.25;;;;;;;17.46;50.90;100063.95;1758830;80;22706;-65
2022/04/08 08:56:36;;;;;;;11.88;4.10;;;;;;;17.44;50.83;100057.94;1778838;81;21046;-64
2022/04/08 08:59:03;;;;;;;10.43;4.15;;;;;;;17.41;50.81;100056.83;1774367;81;21074;-64
2022/04/08 09:01:30;;;;;;;16.32;6.87;;;;;;;17.40;50.70;100055.58;1779392;80;20991;-64
2022/04/08 09:03:57;;;;;;;21.85;10.58;;;;;;;17.41;50.76;100055.97;1779197;81;21510;-64
2022/04/08 09:06:26;;;;;;;14.83;8.13;;;;;;;17.39;50.52;100054.76;1750243;80;21069;-64
2022/04/08 09:08:57;;;;;;;12.98;5.97;;;;;;;17.38;50.28;100067.52;1757453;80;21541;-65
2022/04/08 09:11:27;;;;;;;15.23;4.58;;;;;;;17.43;50.38;100058.05;1762258;79;21034;-64
2022/04/08 09:14:01;;;;;;;11.28;4.12;;;;;;;17.42;50.81;100056.33;1659902;85;21521;-64
2022/04/08 09:16:35;;;;;;;12.73;3.83;;;;;;;17.45;50.45;100054.39;1632695;87;21090;-64
2022/04/08 09:19:11;;;;;;;14.40;4.30;;;;;;;17.47;50.31;100066.12;1633264;87;21076;-64
2022/04/08 09:21:38;;;;;;;9.50;3.67;;;;;;;17.49;50.05;100056.35;1610084;87;21224;-64
2022/04/08 09:24:08;;;;;;;8.65;3.20;;;;;;;17.54;49.59;100059.09;1639609;87;21664;-64
2022/04/08 09:26:36;;;;;;;9.53;4.37;;;;;;;17.55;49.20;100055.55;1640432;87;21089;-64
2022/04/08 09:29:04;;;;;;;13.22;4.47;;;;;;;17.53;49.07;100056.11;1640489;87;21546;-64
2022/04/08 09:31:32;;;;;;;14.05;4.37;;;;;;;17.53;49.03;100067.95;1613964;87;21071;-64
2022/04/08 09:34:02;;;;;;;8.95;4.00;;;;;;;17.55;49.04;100070.02;1639419;87;21057;-64
2022/04/08 09:36:31;;;;;;;8.83;3.80;;;;;;;17.63;48.88;100070.85;1637826;87;21027;-64
2022/04/08 09:38:59;;;;;;;14.25;4.90;;;;;;;17.72;48.67;100077.70;1639411;87;21057;-63
2022/04/08 09:41:42;;;;;;;12.00;4.67;;;;;;;17.74;48.43;100070.55;1638250;87;21042;-64
2022/04/08 09:44:11;;;;;;;10.82;3.87;;;;;;;17.80;49.15;100081.20;1639456;87;21033;-64
2022/04/08 09:46:39;;;;;;;12.23;4.20;;;;;;;17.85;49.41;100081.27;1638399;87;21503;-65
2022/04/08 09:49:10;;;;;;;10.32;4.10;;;;;;;17.94;49.31;100075.06;1640564;87;21587;-64
2022/04/08 09:51:41;;;;;;;9.95;4.10;;;;;;;18.01;48.50;100068.48;1639886;87;21088;-64
2022/04/08 09:54:12;;;;;;;10.72;4.15;;;;;;;18.10;48.32;100063.94;1640384;86;21091;-64
2022/04/08 09:56:43;;;;;;;13.05;4.60;;;;;;;18.24;47.93;100066.53;1658258;85;21040;-65
2022/04/08 09:59:19;;;;;;;11.48;4.55;;;;;;;18.32;47.19;100061.64;1658419;86;21005;-65
2022/04/08 10:01:49;;;;;;;7.17;4.15;;;;;;;18.36;46.82;100056.55;1655315;86;21024;-65
2022/04/08 10:04:19;;;;;;;14.68;4.53;;;;;;;18.35;46.33;100056.16;1658164;86;21617;-65
2022/04/08 10:06:48;;;;;;;12.05;5.10;;;;;;;18.32;46.31;100053.75;1609724;85;21590;-65
2022/04/08 10:09:19;;;;;;;13.68;4.45;;;;;;;18.29;46.65;100053.93;1658714;86;21590;-65
2022/04/08 10:12:15;;;;;;;12.35;4.55;;;;;;;18.33;47.41;100053.64;1770935;80;20971;-65
2022/04/08 10:15:00;;;;;;;11.43;4.95;;;;;;;18.41;47.79;100055.77;1768481;81;21062;-65
2022/04/08 10:17:30;;;;;;;11.20;4.10;;;;;;;18.48;47.87;100046.56;1723565;83;21011;-65
2022/04/08 10:20:23;;;;;;;13.53;4.45;;;;;;;18.54;47.49;100051.44;1723646;83;21032;-64
2022/04/08 10:22:54;;;;;;;12.18;4.22;;;;;;;18.57;47.21;100064.39;1707949;84;21090;-64
2022/04/08 10:25:26;;;;;;;13.48;4.78;;;;;;;18.61;47.29;100066.73;1673989;84;21017;-65
2022/04/08 10:27:58;;;;;;;12.23;5.12;;;;;;;18.64;47.46;100059.95;1706960;84;21555;-65
2022/04/08 10:30:26;;;;;;;17.23;4.95;;;;;;;18.67;47.92;100062.84;1654184;87;21070;-65
2022/04/08 10:33:03;;;;;;;17.57;5.53;;;;;;;18.67;47.92;100058.89;1621015;88;21129;-64
2022/04/08 10:35:33;;;;;;;12.35;4.03;;;;;;;18.69;47.04;100066.25;1599784;88;21033;-64
2022/04/08 10:38:08;;;;;;;13.78;4.00;;;;;;;18.72;46.79;100066.03;1619978;88;21105;-64
2022/04/08 10:40:37;;;;;;;10.53;4.92;;;;;;;18.76;46.68;100062.25;1618011;88;21077;-64
2022/04/08 10:43:10;;;;;;;16.77;4.83;;;;;;;18.81;46.59;100067.22;1619023;88;21082;-65
2022/04/08 10:45:37;;;;;;;13.05;4.95;;;;;;;18.84;46.74;100075.77;1619109;88;21063;-64
2022/04/08 10:48:15;;;;;;;14.75;4.92;;;;;;;18.87;47.15;100079.53;1618845;88;21098;-65
2022/04/08 10:50:43;;;;;;;10.80;4.15;;;;;;;18.90;47.07;100079.80;1618929;88;21052;-64
2022/04/08 10:53:16;;;;;;;15.05;4.33;;;;;;;18.91;46.87;100092.88;1611997;88;21104;-65
2022/04/08 10:58:43;;;;;;;12.28;3.95;;;;;;;19.01;46.76;100075.49;1553823;92;21083;-64
2022/04/08 11:01:24;;;;;;;10.32;3.72;;;;;;;19.07;46.81;100077.72;1533943;93;21137;-65
2022/04/08 11:03:59;;;;;;;12.60;4.15;;;;;;;19.10;46.47;100074.86;1554994;91;21077;-65
2022/04/08 11:06:31;;;;;;;12.55;4.17;;;;;;;19.14;46.07;100071.09;1534043;93;21518;-65
2022/04/08 11:09:07;;;;;;;13.53;4.90;;;;;;;19.17;46.49;100072.66;1554888;90;21118;-65
2022/04/08 11:11:39;;;;;;;14.03;3.30;;;;;;;19.19;46.25;100082.16;1534051;92;21098;-65
2022/04/08 11:14:09;;;;;;;11.00;4.20;;;;;;;19.21;46.07;100093.45;1554308;92;21525;-65
2022/04/08 11:16:39;;;;;;;9.48;4.78;;;;;;;19.24;46.07;100095.05;1555090;90;21136;-65
2022/04/08 11:19:07;;;;;;;8.05;3.87;;;;;;;19.26;45.97;100100.59;1563908;90;21052;-64
2022/04/08 11:21:37;;;;;;;12.33;4.00;;;;;;;19.26;45.86;100099.28;1565327;90;21144;-65
2022/04/08 11:24:16;;;;;;;8.38;3.40;;;;;;;19.28;45.91;100113.20;1543153;91;21067;-66
2022/04/08 11:26:51;;;;;;;7.90;2.85;;;;;;;19.29;45.89;100122.80;1568099;90;21105;-65
2022/04/08 11:29:27;;;;;;;8.65;3.58;;;;;;;19.27;45.82;100135.23;1541115;93;21638;-64
2022/04/08 11:32:08;;;;;;;9.30;3.90;;;;;;;19.24;45.67;100137.25;1544115;93;21070;-64
2022/04/08 11:34:39;;;;;;;12.35;4.67;;;;;;;19.21;45.49;100135.66;1526414;91;21081;-63